sensor_id;sensor_type;location;lat;lon;timestamp;P1;durP1;ratioP1;P2;durP2;ratioP2
84007;SDS011;74070;50.948;6.954;2024-02-04T00:02:04;2.03;;;1.50;;
84007;SDS011;74070;50.948;6.954;2024-02-04T00:04:31;1.60;;;1.50;;
84007;SDS011;74070;50.948;6.954;2024-02-04T00:06:58;3.27;;;2.20;;
84007;SDS011;74070;50.948;6.954;2024-02-04T00:09:24;3.70;;;3.40;;
84007;SDS011;74070;50.948;6.954;2024-02-04T00:11:52;4.73;;;3.77;;
84007;SDS011;74070;50.948;6.954;2024-02-04T00:14:18;4.63;;;4.23;;
84007;SDS011;74070;50.948;6.954;2024-02-04T00:16:45;7.67;;;4.77;;
84007;SDS011;74070;50.948;6.954;2024-02-04T00:19:12;5.70;;;5.20;;
84007;SDS011;74070;50.948;6.954;2024-02-04T00:21:39;6.50;;;5.90;;
84007;SDS011;74070;50.948;6.954;2024-02-04T00:24:05;10.80;;;8.50;;
84007;SDS011;74070;50.948;6.954;2024-02-04T00:26:32;14.27;;;9.90;;
84007;SDS011;74070;50.948;6.954;2024-02-04T00:28:58;11.20;;;9.87;;
84007;SDS011;74070;50.948;6.954;2024-02-04T00:31:25;15.47;;;12.13;;
84007;SDS011;74070;50.948;6.954;2024-02-04T00:33:52;15.63;;;12.33;;
84007;SDS011;74070;50.948;6.954;2024-02-04T00:36:18;12.67;;;10.70;;
84007;SDS011;74070;50.948;6.954;2024-02-04T00:38:46;13.47;;;10.47;;
84007;SDS011;74070;50.948;6.954;2024-02-04T00:41:12;14.00;;;10.57;;
84007;SDS011;74070;50.948;6.954;2024-02-04T00:43:39;13.07;;;10.93;;
84007;SDS011;74070;50.948;6.954;2024-02-04T00:46:05;13.43;;;10.93;;
84007;SDS011;74070;50.948;6.954;2024-02-04T00:48:32;12.50;;;8.20;;
84007;SDS011;74070;50.948;6.954;2024-02-04T00:50:59;8.87;;;7.57;;
84007;SDS011;74070;50.948;6.954;2024-02-04T00:53:25;9.57;;;8.57;;
84007;SDS011;74070;50.948;6.954;2024-02-04T00:55:52;9.33;;;7.87;;
84007;SDS011;74070;50.948;6.954;2024-02-04T00:58:18;11.03;;;9.60;;
84007;SDS011;74070;50.948;6.954;2024-02-04T01:00:45;9.27;;;7.77;;
84007;SDS011;74070;50.948;6.954;2024-02-04T01:03:12;7.93;;;6.97;;
84007;SDS011;74070;50.948;6.954;2024-02-04T01:05:38;7.50;;;5.90;;
84007;SDS011;74070;50.948;6.954;2024-02-04T01:08:06;7.50;;;6.63;;
84007;SDS011;74070;50.948;6.954;2024-02-04T01:10:32;9.53;;;6.73;;
84007;SDS011;74070;50.948;6.954;2024-02-04T01:12:59;5.87;;;4.13;;
84007;SDS011;74070;50.948;6.954;2024-02-04T01:15:25;6.90;;;5.33;;
84007;SDS011;74070;50.948;6.954;2024-02-04T01:17:52;5.00;;;4.13;;
84007;SDS011;74070;50.948;6.954;2024-02-04T01:20:19;4.60;;;4.20;;
84007;SDS011;74070;50.948;6.954;2024-02-04T01:22:45;5.77;;;4.10;;
84007;SDS011;74070;50.948;6.954;2024-02-04T01:25:12;3.93;;;3.20;;
84007;SDS011;74070;50.948;6.954;2024-02-04T01:27:39;3.40;;;3.10;;
84007;SDS011;74070;50.948;6.954;2024-02-04T01:30:07;5.03;;;2.60;;
84007;SDS011;74070;50.948;6.954;2024-02-04T01:32:34;3.30;;;3.00;;
84007;SDS011;74070;50.948;6.954;2024-02-04T01:35:01;3.17;;;2.87;;
84007;SDS011;74070;50.948;6.954;2024-02-04T01:37:27;4.13;;;2.80;;
84007;SDS011;74070;50.948;6.954;2024-02-04T01:39:54;3.57;;;3.27;;
84007;SDS011;74070;50.948;6.954;2024-02-04T01:42:21;4.47;;;3.17;;
84007;SDS011;74070;50.948;6.954;2024-02-04T01:44:47;3.23;;;2.90;;
84007;SDS011;74070;50.948;6.954;2024-02-04T01:47:15;6.53;;;3.30;;
84007;SDS011;74070;50.948;6.954;2024-02-04T01:49:43;3.70;;;2.70;;
84007;SDS011;74070;50.948;6.954;2024-02-04T01:52:09;3.03;;;2.70;;
84007;SDS011;74070;50.948;6.954;2024-02-04T01:54:36;3.77;;;2.93;;
84007;SDS011;74070;50.948;6.954;2024-02-04T01:57:02;6.30;;;3.73;;
84007;SDS011;74070;50.948;6.954;2024-02-04T01:59:29;4.03;;;3.20;;
84007;SDS011;74070;50.948;6.954;2024-02-04T02:01:57;5.93;;;3.03;;
84007;SDS011;74070;50.948;6.954;2024-02-04T02:04:25;3.90;;;3.47;;
84007;SDS011;74070;50.948;6.954;2024-02-04T02:06:53;3.87;;;3.27;;
84007;SDS011;74070;50.948;6.954;2024-02-04T02:09:18;4.00;;;3.27;;
84007;SDS011;74070;50.948;6.954;2024-02-04T02:11:46;3.17;;;2.87;;
84007;SDS011;74070;50.948;6.954;2024-02-04T02:14:14;3.93;;;2.70;;
84007;SDS011;74070;50.948;6.954;2024-02-04T02:16:42;4.47;;;2.93;;
84007;SDS011;74070;50.948;6.954;2024-02-04T02:21:50;2.03;;;1.83;;
84007;SDS011;74070;50.948;6.954;2024-02-04T02:24:16;3.70;;;2.80;;
84007;SDS011;74070;50.948;6.954;2024-02-04T02:26:46;2.70;;;2.50;;
84007;SDS011;74070;50.948;6.954;2024-02-04T02:29:13;4.03;;;2.67;;
84007;SDS011;74070;50.948;6.954;2024-02-04T02:31:40;2.50;;;2.30;;
84007;SDS011;74070;50.948;6.954;2024-02-04T02:34:06;3.23;;;2.63;;
84007;SDS011;74070;50.948;6.954;2024-02-04T02:36:33;3.40;;;2.70;;
84007;SDS011;74070;50.948;6.954;2024-02-04T02:41:34;3.93;;;2.53;;
84007;SDS011;74070;50.948;6.954;2024-02-04T02:44:01;3.13;;;2.83;;
84007;SDS011;74070;50.948;6.954;2024-02-04T02:46:28;4.07;;;3.27;;
84007;SDS011;74070;50.948;6.954;2024-02-04T02:48:54;4.57;;;2.87;;
84007;SDS011;74070;50.948;6.954;2024-02-04T02:51:21;4.23;;;2.33;;
84007;SDS011;74070;50.948;6.954;2024-02-04T02:53:47;5.83;;;2.93;;
84007;SDS011;74070;50.948;6.954;2024-02-04T02:56:14;2.93;;;2.47;;
84007;SDS011;74070;50.948;6.954;2024-02-04T02:58:41;2.50;;;2.30;;
84007;SDS011;74070;50.948;6.954;2024-02-04T03:01:07;4.57;;;3.20;;
84007;SDS011;74070;50.948;6.954;2024-02-04T03:03:34;4.77;;;2.80;;
84007;SDS011;74070;50.948;6.954;2024-02-04T03:06:01;3.30;;;3.00;;
84007;SDS011;74070;50.948;6.954;2024-02-04T03:08:28;2.83;;;2.53;;
84007;SDS011;74070;50.948;6.954;2024-02-04T03:10:54;4.27;;;3.03;;
84007;SDS011;74070;50.948;6.954;2024-02-04T03:13:21;2.67;;;2.47;;
84007;SDS011;74070;50.948;6.954;2024-02-04T03:15:47;3.23;;;2.93;;
84007;SDS011;74070;50.948;6.954;2024-02-04T03:18:14;3.37;;;3.00;;
84007;SDS011;74070;50.948;6.954;2024-02-04T03:20:41;3.07;;;2.70;;
84007;SDS011;74070;50.948;6.954;2024-02-04T03:23:08;3.73;;;2.93;;
84007;SDS011;74070;50.948;6.954;2024-02-04T03:25:34;5.70;;;3.13;;
84007;SDS011;74070;50.948;6.954;2024-02-04T03:28:00;3.27;;;2.70;;
84007;SDS011;74070;50.948;6.954;2024-02-04T03:30:27;2.67;;;2.47;;
84007;SDS011;74070;50.948;6.954;2024-02-04T03:32:54;3.17;;;2.87;;
84007;SDS011;74070;50.948;6.954;2024-02-04T03:35:20;3.40;;;3.10;;
84007;SDS011;74070;50.948;6.954;2024-02-04T03:37:47;6.43;;;3.47;;
84007;SDS011;74070;50.948;6.954;2024-02-04T03:40:13;4.00;;;3.70;;
84007;SDS011;74070;50.948;6.954;2024-02-04T03:42:40;3.57;;;3.20;;
84007;SDS011;74070;50.948;6.954;2024-02-04T03:45:07;3.70;;;3.27;;
84007;SDS011;74070;50.948;6.954;2024-02-04T03:47:33;5.10;;;3.17;;
84007;SDS011;74070;50.948;6.954;2024-02-04T03:50:00;3.50;;;3.20;;
84007;SDS011;74070;50.948;6.954;2024-02-04T03:52:27;3.37;;;3.07;;
84007;SDS011;74070;50.948;6.954;2024-02-04T03:54:53;3.57;;;3.27;;
84007;SDS011;74070;50.948;6.954;2024-02-04T03:57:20;6.83;;;4.00;;
84007;SDS011;74070;50.948;6.954;2024-02-04T03:59:46;4.10;;;3.50;;
84007;SDS011;74070;50.948;6.954;2024-02-04T04:02:13;5.17;;;4.13;;
84007;SDS011;74070;50.948;6.954;2024-02-04T04:04:40;4.50;;;4.10;;
84007;SDS011;74070;50.948;6.954;2024-02-04T04:07:07;4.37;;;3.93;;
84007;SDS011;74070;50.948;6.954;2024-02-04T04:09:34;4.40;;;4.00;;
84007;SDS011;74070;50.948;6.954;2024-02-04T04:12:02;4.33;;;3.70;;
84007;SDS011;74070;50.948;6.954;2024-02-04T04:14:28;5.87;;;4.10;;
84007;SDS011;74070;50.948;6.954;2024-02-04T04:16:55;4.70;;;4.27;;
84007;SDS011;74070;50.948;6.954;2024-02-04T04:19:22;3.93;;;3.53;;
84007;SDS011;74070;50.948;6.954;2024-02-04T04:21:48;3.87;;;3.47;;
84007;SDS011;74070;50.948;6.954;2024-02-04T04:24:15;5.07;;;4.23;;
84007;SDS011;74070;50.948;6.954;2024-02-04T04:26:43;4.60;;;4.10;;
84007;SDS011;74070;50.948;6.954;2024-02-04T04:29:09;4.30;;;3.90;;
84007;SDS011;74070;50.948;6.954;2024-02-04T04:31:36;3.47;;;3.17;;
84007;SDS011;74070;50.948;6.954;2024-02-04T04:34:03;4.20;;;3.67;;
84007;SDS011;74070;50.948;6.954;2024-02-04T04:36:29;4.43;;;3.43;;
84007;SDS011;74070;50.948;6.954;2024-02-04T04:38:56;3.40;;;3.10;;
84007;SDS011;74070;50.948;6.954;2024-02-04T04:41:22;3.70;;;3.40;;
84007;SDS011;74070;50.948;6.954;2024-02-04T04:43:49;3.10;;;2.80;;
84007;SDS011;74070;50.948;6.954;2024-02-04T04:46:16;4.83;;;4.03;;
84007;SDS011;74070;50.948;6.954;2024-02-04T04:48:43;4.10;;;3.70;;
84007;SDS011;74070;50.948;6.954;2024-02-04T04:51:10;5.33;;;3.80;;
84007;SDS011;74070;50.948;6.954;2024-02-04T04:53:37;4.40;;;3.50;;
84007;SDS011;74070;50.948;6.954;2024-02-04T04:56:04;4.97;;;4.30;;
84007;SDS011;74070;50.948;6.954;2024-02-04T04:58:31;6.13;;;3.73;;
84007;SDS011;74070;50.948;6.954;2024-02-04T05:00:58;4.83;;;4.23;;
84007;SDS011;74070;50.948;6.954;2024-02-04T05:03:25;3.90;;;3.37;;
84007;SDS011;74070;50.948;6.954;2024-02-04T05:05:51;6.23;;;4.00;;
84007;SDS011;74070;50.948;6.954;2024-02-04T05:08:18;5.23;;;3.90;;
84007;SDS011;74070;50.948;6.954;2024-02-04T05:10:44;5.00;;;4.50;;
84007;SDS011;74070;50.948;6.954;2024-02-04T05:13:11;6.80;;;4.77;;
84007;SDS011;74070;50.948;6.954;2024-02-04T05:15:38;6.93;;;4.47;;
84007;SDS011;74070;50.948;6.954;2024-02-04T05:18:04;4.97;;;4.47;;
84007;SDS011;74070;50.948;6.954;2024-02-04T05:20:31;5.70;;;4.07;;
84007;SDS011;74070;50.948;6.954;2024-02-04T05:22:58;5.53;;;4.53;;
84007;SDS011;74070;50.948;6.954;2024-02-04T05:25:25;5.67;;;4.20;;
84007;SDS011;74070;50.948;6.954;2024-02-04T05:27:52;7.70;;;3.80;;
84007;SDS011;74070;50.948;6.954;2024-02-04T05:30:19;4.63;;;3.90;;
84007;SDS011;74070;50.948;6.954;2024-02-04T05:32:45;6.90;;;4.07;;
84007;SDS011;74070;50.948;6.954;2024-02-04T05:35:12;5.83;;;4.63;;
84007;SDS011;74070;50.948;6.954;2024-02-04T05:37:38;4.70;;;4.27;;
84007;SDS011;74070;50.948;6.954;2024-02-04T05:40:05;5.50;;;4.50;;
84007;SDS011;74070;50.948;6.954;2024-02-04T05:42:32;6.80;;;4.33;;
84007;SDS011;74070;50.948;6.954;2024-02-04T05:44:59;7.27;;;4.97;;
84007;SDS011;74070;50.948;6.954;2024-02-04T05:47:25;8.07;;;5.23;;
84007;SDS011;74070;50.948;6.954;2024-02-04T05:49:52;5.70;;;5.10;;
84007;SDS011;74070;50.948;6.954;2024-02-04T05:52:18;7.33;;;5.33;;
84007;SDS011;74070;50.948;6.954;2024-02-04T05:54:46;6.13;;;5.53;;
84007;SDS011;74070;50.948;6.954;2024-02-04T05:57:13;6.30;;;5.70;;
84007;SDS011;74070;50.948;6.954;2024-02-04T05:59:41;6.90;;;5.33;;
84007;SDS011;74070;50.948;6.954;2024-02-04T06:02:08;6.23;;;5.63;;
84007;SDS011;74070;50.948;6.954;2024-02-04T06:04:35;6.00;;;5.40;;
84007;SDS011;74070;50.948;6.954;2024-02-04T06:07:02;6.40;;;5.57;;
84007;SDS011;74070;50.948;6.954;2024-02-04T06:09:29;5.97;;;5.07;;
84007;SDS011;74070;50.948;6.954;2024-02-04T06:11:57;7.97;;;5.00;;
84007;SDS011;74070;50.948;6.954;2024-02-04T06:14:24;6.53;;;5.40;;
84007;SDS011;74070;50.948;6.954;2024-02-04T06:16:51;5.23;;;4.60;;
84007;SDS011;74070;50.948;6.954;2024-02-04T06:19:19;5.70;;;5.10;;
84007;SDS011;74070;50.948;6.954;2024-02-04T06:21:46;5.00;;;4.53;;
84007;SDS011;74070;50.948;6.954;2024-02-04T06:24:13;4.93;;;4.20;;
84007;SDS011;74070;50.948;6.954;2024-02-04T06:26:39;5.20;;;4.37;;
84007;SDS011;74070;50.948;6.954;2024-02-04T06:29:06;6.30;;;4.43;;
84007;SDS011;74070;50.948;6.954;2024-02-04T06:31:32;4.87;;;4.23;;
84007;SDS011;74070;50.948;6.954;2024-02-04T06:33:59;5.00;;;4.47;;
84007;SDS011;74070;50.948;6.954;2024-02-04T06:36:26;5.83;;;4.53;;
84007;SDS011;74070;50.948;6.954;2024-02-04T06:38:52;4.00;;;3.57;;
84007;SDS011;74070;50.948;6.954;2024-02-04T06:41:19;5.67;;;4.27;;
84007;SDS011;74070;50.948;6.954;2024-02-04T06:43:45;5.27;;;4.13;;
84007;SDS011;74070;50.948;6.954;2024-02-04T06:46:13;5.20;;;3.50;;
84007;SDS011;74070;50.948;6.954;2024-02-04T06:48:40;4.43;;;3.07;;
84007;SDS011;74070;50.948;6.954;2024-02-04T06:51:07;4.27;;;2.80;;
84007;SDS011;74070;50.948;6.954;2024-02-04T06:53:35;4.47;;;2.90;;
84007;SDS011;74070;50.948;6.954;2024-02-04T06:56:01;5.03;;;2.67;;
84007;SDS011;74070;50.948;6.954;2024-02-04T06:58:28;3.03;;;2.67;;
84007;SDS011;74070;50.948;6.954;2024-02-04T07:00:55;3.97;;;2.40;;
84007;SDS011;74070;50.948;6.954;2024-02-04T07:03:21;4.80;;;2.90;;
84007;SDS011;74070;50.948;6.954;2024-02-04T07:05:48;2.77;;;2.53;;
84007;SDS011;74070;50.948;6.954;2024-02-04T07:08:14;7.30;;;2.80;;
84007;SDS011;74070;50.948;6.954;2024-02-04T07:10:41;2.23;;;2.03;;
84007;SDS011;74070;50.948;6.954;2024-02-04T07:13:08;3.20;;;2.57;;
84007;SDS011;74070;50.948;6.954;2024-02-04T07:15:34;3.83;;;2.63;;
84007;SDS011;74070;50.948;6.954;2024-02-04T07:18:01;6.10;;;2.63;;
84007;SDS011;74070;50.948;6.954;2024-02-04T07:20:27;2.60;;;2.40;;
84007;SDS011;74070;50.948;6.954;2024-02-04T07:22:54;3.47;;;2.60;;
84007;SDS011;74070;50.948;6.954;2024-02-04T07:25:20;4.83;;;2.60;;
84007;SDS011;74070;50.948;6.954;2024-02-04T07:27:50;3.03;;;1.90;;
84007;SDS011;74070;50.948;6.954;2024-02-04T07:30:16;2.60;;;2.20;;
84007;SDS011;74070;50.948;6.954;2024-02-04T07:32:43;3.00;;;2.10;;
84007;SDS011;74070;50.948;6.954;2024-02-04T07:35:10;2.63;;;2.30;;
84007;SDS011;74070;50.948;6.954;2024-02-04T07:37:37;2.57;;;2.30;;
84007;SDS011;74070;50.948;6.954;2024-02-04T07:40:05;4.70;;;2.40;;
84007;SDS011;74070;50.948;6.954;2024-02-04T07:42:32;2.90;;;2.10;;
84007;SDS011;74070;50.948;6.954;2024-02-04T07:44:59;2.03;;;1.80;;
84007;SDS011;74070;50.948;6.954;2024-02-04T07:47:26;2.60;;;1.90;;
84007;SDS011;74070;50.948;6.954;2024-02-04T07:49:53;4.40;;;1.90;;
84007;SDS011;74070;50.948;6.954;2024-02-04T07:52:20;3.53;;;1.93;;
84007;SDS011;74070;50.948;6.954;2024-02-04T07:54:47;2.43;;;1.30;;
84007;SDS011;74070;50.948;6.954;2024-02-04T07:57:14;2.40;;;1.50;;
84007;SDS011;74070;50.948;6.954;2024-02-04T07:59:40;3.90;;;2.50;;
84007;SDS011;74070;50.948;6.954;2024-02-04T08:02:08;2.37;;;1.70;;
84007;SDS011;74070;50.948;6.954;2024-02-04T08:04:34;1.43;;;1.30;;
84007;SDS011;74070;50.948;6.954;2024-02-04T08:07:01;2.47;;;1.77;;
84007;SDS011;74070;50.948;6.954;2024-02-04T08:09:28;1.90;;;1.60;;
84007;SDS011;74070;50.948;6.954;2024-02-04T08:11:56;2.87;;;1.87;;
84007;SDS011;74070;50.948;6.954;2024-02-04T08:14:22;1.60;;;1.43;;
84007;SDS011;74070;50.948;6.954;2024-02-04T08:16:49;1.80;;;1.60;;
84007;SDS011;74070;50.948;6.954;2024-02-04T08:19:16;2.17;;;1.80;;
84007;SDS011;74070;50.948;6.954;2024-02-04T08:21:42;2.47;;;1.97;;
84007;SDS011;74070;50.948;6.954;2024-02-04T08:24:08;2.10;;;1.90;;
84007;SDS011;74070;50.948;6.954;2024-02-04T08:26:35;2.77;;;1.63;;
84007;SDS011;74070;50.948;6.954;2024-02-04T08:29:02;1.70;;;1.60;;
84007;SDS011;74070;50.948;6.954;2024-02-04T08:31:29;2.90;;;1.83;;
84007;SDS011;74070;50.948;6.954;2024-02-04T08:33:55;3.10;;;2.00;;
84007;SDS011;74070;50.948;6.954;2024-02-04T08:36:22;3.00;;;1.77;;
84007;SDS011;74070;50.948;6.954;2024-02-04T08:38:49;1.70;;;1.33;;
84007;SDS011;74070;50.948;6.954;2024-02-04T08:41:15;1.63;;;1.40;;
84007;SDS011;74070;50.948;6.954;2024-02-04T08:43:42;2.93;;;1.70;;
84007;SDS011;74070;50.948;6.954;2024-02-04T08:46:09;2.90;;;2.03;;
84007;SDS011;74070;50.948;6.954;2024-02-04T08:48:35;2.40;;;2.20;;
84007;SDS011;74070;50.948;6.954;2024-02-04T08:51:02;2.47;;;1.97;;
84007;SDS011;74070;50.948;6.954;2024-02-04T08:53:28;3.27;;;2.00;;
84007;SDS011;74070;50.948;6.954;2024-02-04T08:55:55;2.70;;;2.13;;
84007;SDS011;74070;50.948;6.954;2024-02-04T08:58:22;2.30;;;1.53;;
84007;SDS011;74070;50.948;6.954;2024-02-04T09:00:48;2.67;;;1.70;;
84007;SDS011;74070;50.948;6.954;2024-02-04T09:03:15;4.20;;;2.27;;
84007;SDS011;74070;50.948;6.954;2024-02-04T09:05:41;3.13;;;2.20;;
84007;SDS011;74070;50.948;6.954;2024-02-04T09:08:09;2.80;;;1.90;;
84007;SDS011;74070;50.948;6.954;2024-02-04T09:10:35;2.00;;;1.80;;
84007;SDS011;74070;50.948;6.954;2024-02-04T09:13:02;2.50;;;1.40;;
84007;SDS011;74070;50.948;6.954;2024-02-04T09:15:29;1.50;;;1.37;;
84007;SDS011;74070;50.948;6.954;2024-02-04T09:17:55;1.53;;;1.33;;
84007;SDS011;74070;50.948;6.954;2024-02-04T09:20:22;1.17;;;1.07;;
84007;SDS011;74070;50.948;6.954;2024-02-04T09:22:48;1.37;;;1.23;;
84007;SDS011;74070;50.948;6.954;2024-02-04T09:25:16;1.00;;;0.83;;
84007;SDS011;74070;50.948;6.954;2024-02-04T09:27:43;1.50;;;1.30;;
84007;SDS011;74070;50.948;6.954;2024-02-04T09:30:11;1.40;;;0.97;;
84007;SDS011;74070;50.948;6.954;2024-02-04T09:32:38;2.73;;;1.03;;
84007;SDS011;74070;50.948;6.954;2024-02-04T09:35:04;2.37;;;0.80;;
84007;SDS011;74070;50.948;6.954;2024-02-04T09:37:31;2.00;;;1.27;;
84007;SDS011;74070;50.948;6.954;2024-02-04T09:39:57;1.27;;;1.00;;
84007;SDS011;74070;50.948;6.954;2024-02-04T09:42:24;1.40;;;1.30;;
84007;SDS011;74070;50.948;6.954;2024-02-04T09:44:51;1.67;;;0.90;;
84007;SDS011;74070;50.948;6.954;2024-02-04T09:47:17;1.20;;;1.00;;
84007;SDS011;74070;50.948;6.954;2024-02-04T09:49:45;1.27;;;1.17;;
84007;SDS011;74070;50.948;6.954;2024-02-04T09:52:12;0.90;;;0.80;;
84007;SDS011;74070;50.948;6.954;2024-02-04T09:54:45;1.43;;;1.10;;
84007;SDS011;74070;50.948;6.954;2024-02-04T09:57:12;1.93;;;1.27;;
84007;SDS011;74070;50.948;6.954;2024-02-04T09:59:39;2.33;;;1.30;;
84007;SDS011;74070;50.948;6.954;2024-02-04T10:02:06;2.53;;;1.20;;
84007;SDS011;74070;50.948;6.954;2024-02-04T10:04:34;2.33;;;1.10;;
84007;SDS011;74070;50.948;6.954;2024-02-04T10:07:01;2.53;;;1.30;;
84007;SDS011;74070;50.948;6.954;2024-02-04T10:09:28;1.80;;;1.40;;
84007;SDS011;74070;50.948;6.954;2024-02-04T10:11:55;1.67;;;1.20;;
84007;SDS011;74070;50.948;6.954;2024-02-04T10:14:22;3.67;;;1.60;;
84007;SDS011;74070;50.948;6.954;2024-02-04T10:16:48;1.80;;;1.50;;
84007;SDS011;74070;50.948;6.954;2024-02-04T10:19:15;1.53;;;1.30;;
84007;SDS011;74070;50.948;6.954;2024-02-04T10:21:42;2.27;;;1.60;;
84007;SDS011;74070;50.948;6.954;2024-02-04T10:24:08;2.10;;;1.60;;
84007;SDS011;74070;50.948;6.954;2024-02-04T10:26:35;3.60;;;1.33;;
84007;SDS011;74070;50.948;6.954;2024-02-04T10:29:02;2.00;;;1.50;;
84007;SDS011;74070;50.948;6.954;2024-02-04T10:31:28;1.93;;;1.67;;
84007;SDS011;74070;50.948;6.954;2024-02-04T10:33:55;1.73;;;1.57;;
84007;SDS011;74070;50.948;6.954;2024-02-04T10:36:21;2.30;;;1.33;;
84007;SDS011;74070;50.948;6.954;2024-02-04T10:38:49;2.57;;;1.57;;
84007;SDS011;74070;50.948;6.954;2024-02-04T10:41:16;3.13;;;1.90;;
84007;SDS011;74070;50.948;6.954;2024-02-04T10:43:43;2.03;;;1.70;;
84007;SDS011;74070;50.948;6.954;2024-02-04T10:48:43;3.13;;;1.73;;
84007;SDS011;74070;50.948;6.954;2024-02-04T10:51:12;2.00;;;1.67;;
84007;SDS011;74070;50.948;6.954;2024-02-04T10:53:40;5.50;;;2.50;;
84007;SDS011;74070;50.948;6.954;2024-02-04T10:56:05;5.13;;;2.60;;
84007;SDS011;74070;50.948;6.954;2024-02-04T10:58:33;6.63;;;2.50;;
84007;SDS011;74070;50.948;6.954;2024-02-04T11:01:00;3.03;;;2.13;;
84007;SDS011;74070;50.948;6.954;2024-02-04T11:03:28;1.73;;;1.40;;
84007;SDS011;74070;50.948;6.954;2024-02-04T11:05:55;1.93;;;1.70;;
84007;SDS011;74070;50.948;6.954;2024-02-04T11:08:22;3.07;;;1.90;;
84007;SDS011;74070;50.948;6.954;2024-02-04T11:10:49;1.60;;;1.40;;
84007;SDS011;74070;50.948;6.954;2024-02-04T11:13:16;2.40;;;1.70;;
84007;SDS011;74070;50.948;6.954;2024-02-04T11:15:43;3.47;;;1.57;;
84007;SDS011;74070;50.948;6.954;2024-02-04T11:18:18;4.20;;;1.87;;
84007;SDS011;74070;50.948;6.954;2024-02-04T11:20:56;1.37;;;0.97;;
84007;SDS011;74070;50.948;6.954;2024-02-04T11:23:30;1.43;;;1.30;;
84007;SDS011;74070;50.948;6.954;2024-02-04T11:26:12;2.63;;;1.10;;
84007;SDS011;74070;50.948;6.954;2024-02-04T11:28:39;3.07;;;1.20;;
84007;SDS011;74070;50.948;6.954;2024-02-04T11:31:13;1.30;;;0.90;;
84007;SDS011;74070;50.948;6.954;2024-02-04T11:33:32;2.00;;;1.30;;
84007;SDS011;74070;50.948;6.954;2024-02-04T11:35:59;1.20;;;1.10;;
84007;SDS011;74070;50.948;6.954;2024-02-04T11:38:29;2.60;;;1.20;;
84007;SDS011;74070;50.948;6.954;2024-02-04T11:40:57;2.57;;;1.27;;
84007;SDS011;74070;50.948;6.954;2024-02-04T11:43:23;3.00;;;1.00;;
84007;SDS011;74070;50.948;6.954;2024-02-04T11:45:51;1.40;;;1.00;;
84007;SDS011;74070;50.948;6.954;2024-02-04T11:48:16;3.23;;;0.90;;
84007;SDS011;74070;50.948;6.954;2024-02-04T11:50:43;2.17;;;1.10;;
84007;SDS011;74070;50.948;6.954;2024-02-04T11:53:11;1.73;;;1.10;;
84007;SDS011;74070;50.948;6.954;2024-02-04T11:55:39;1.70;;;1.40;;
84007;SDS011;74070;50.948;6.954;2024-02-04T11:58:06;1.00;;;0.90;;
84007;SDS011;74070;50.948;6.954;2024-02-04T12:00:33;1.83;;;0.90;;
84007;SDS011;74070;50.948;6.954;2024-02-04T12:03:04;1.43;;;1.33;;
84007;SDS011;74070;50.948;6.954;2024-02-04T12:05:32;3.70;;;1.50;;
84007;SDS011;74070;50.948;6.954;2024-02-04T12:07:58;4.13;;;1.43;;
84007;SDS011;74070;50.948;6.954;2024-02-04T12:10:24;1.67;;;1.40;;
84007;SDS011;74070;50.948;6.954;2024-02-04T12:12:51;3.90;;;1.30;;
84007;SDS011;74070;50.948;6.954;2024-02-04T12:15:17;1.30;;;1.20;;
84007;SDS011;74070;50.948;6.954;2024-02-04T12:17:44;1.63;;;1.10;;
84007;SDS011;74070;50.948;6.954;2024-02-04T12:20:10;2.47;;;1.30;;
84007;SDS011;74070;50.948;6.954;2024-02-04T12:22:37;2.43;;;1.70;;
84007;SDS011;74070;50.948;6.954;2024-02-04T12:25:04;1.80;;;1.30;;
84007;SDS011;74070;50.948;6.954;2024-02-04T12:27:31;1.60;;;1.33;;
84007;SDS011;74070;50.948;6.954;2024-02-04T12:29:58;2.40;;;1.80;;
84007;SDS011;74070;50.948;6.954;2024-02-04T12:32:24;1.70;;;1.40;;
84007;SDS011;74070;50.948;6.954;2024-02-04T12:34:51;1.40;;;1.30;;
84007;SDS011;74070;50.948;6.954;2024-02-04T12:37:18;2.00;;;1.70;;
84007;SDS011;74070;50.948;6.954;2024-02-04T12:39:45;2.40;;;1.10;;
84007;SDS011;74070;50.948;6.954;2024-02-04T12:42:15;1.10;;;1.00;;
84007;SDS011;74070;50.948;6.954;2024-02-04T12:44:41;2.07;;;1.20;;
84007;SDS011;74070;50.948;6.954;2024-02-04T12:47:07;2.90;;;1.67;;
84007;SDS011;74070;50.948;6.954;2024-02-04T12:49:34;3.83;;;1.57;;
84007;SDS011;74070;50.948;6.954;2024-02-04T12:52:04;1.20;;;1.00;;
84007;SDS011;74070;50.948;6.954;2024-02-04T12:54:39;1.83;;;1.67;;
84007;SDS011;74070;50.948;6.954;2024-02-04T12:56:58;1.77;;;1.60;;
84007;SDS011;74070;50.948;6.954;2024-02-04T12:59:25;3.97;;;2.10;;
84007;SDS011;74070;50.948;6.954;2024-02-04T13:01:54;3.30;;;1.40;;
84007;SDS011;74070;50.948;6.954;2024-02-04T13:04:20;4.90;;;3.10;;
84007;SDS011;74070;50.948;6.954;2024-02-04T13:06:47;2.30;;;1.60;;
84007;SDS011;74070;50.948;6.954;2024-02-04T13:09:14;2.63;;;1.37;;
84007;SDS011;74070;50.948;6.954;2024-02-04T13:11:40;1.70;;;1.50;;
84007;SDS011;74070;50.948;6.954;2024-02-04T13:14:08;1.90;;;1.53;;
84007;SDS011;74070;50.948;6.954;2024-02-04T13:16:34;1.30;;;1.20;;
84007;SDS011;74070;50.948;6.954;2024-02-04T13:19:02;1.60;;;1.30;;
84007;SDS011;74070;50.948;6.954;2024-02-04T13:21:28;1.20;;;1.10;;
84007;SDS011;74070;50.948;6.954;2024-02-04T13:23:55;2.30;;;1.13;;
84007;SDS011;74070;50.948;6.954;2024-02-04T13:26:22;1.80;;;1.53;;
84007;SDS011;74070;50.948;6.954;2024-02-04T13:28:48;2.73;;;1.40;;
84007;SDS011;74070;50.948;6.954;2024-02-04T13:31:15;1.80;;;1.60;;
84007;SDS011;74070;50.948;6.954;2024-02-04T13:33:42;3.40;;;1.30;;
84007;SDS011;74070;50.948;6.954;2024-02-04T13:36:09;2.53;;;1.90;;
84007;SDS011;74070;50.948;6.954;2024-02-04T13:38:36;1.70;;;1.60;;
84007;SDS011;74070;50.948;6.954;2024-02-04T13:41:03;1.33;;;1.23;;
84007;SDS011;74070;50.948;6.954;2024-02-04T13:43:30;2.53;;;1.27;;
84007;SDS011;74070;50.948;6.954;2024-02-04T13:45:59;1.60;;;1.20;;
84007;SDS011;74070;50.948;6.954;2024-02-04T13:48:25;2.10;;;1.00;;
84007;SDS011;74070;50.948;6.954;2024-02-04T13:50:52;1.73;;;1.30;;
84007;SDS011;74070;50.948;6.954;2024-02-04T13:53:19;2.20;;;1.17;;
84007;SDS011;74070;50.948;6.954;2024-02-04T13:55:46;1.17;;;1.07;;
84007;SDS011;74070;50.948;6.954;2024-02-04T13:58:13;2.20;;;1.30;;
84007;SDS011;74070;50.948;6.954;2024-02-04T14:00:39;2.60;;;1.33;;
84007;SDS011;74070;50.948;6.954;2024-02-04T14:03:06;2.27;;;1.30;;
84007;SDS011;74070;50.948;6.954;2024-02-04T14:05:32;1.33;;;1.17;;
84007;SDS011;74070;50.948;6.954;2024-02-04T14:07:59;1.10;;;0.90;;
84007;SDS011;74070;50.948;6.954;2024-02-04T14:10:26;1.83;;;1.00;;
84007;SDS011;74070;50.948;6.954;2024-02-04T14:12:54;1.07;;;0.87;;
84007;SDS011;74070;50.948;6.954;2024-02-04T14:15:21;0.93;;;0.87;;
84007;SDS011;74070;50.948;6.954;2024-02-04T14:17:48;1.10;;;0.97;;
84007;SDS011;74070;50.948;6.954;2024-02-04T14:20:15;1.27;;;1.10;;
84007;SDS011;74070;50.948;6.954;2024-02-04T14:22:41;3.07;;;1.23;;
84007;SDS011;74070;50.948;6.954;2024-02-04T14:25:08;1.43;;;1.03;;
84007;SDS011;74070;50.948;6.954;2024-02-04T14:27:35;1.73;;;1.20;;
84007;SDS011;74070;50.948;6.954;2024-02-04T14:30:01;1.20;;;1.00;;
84007;SDS011;74070;50.948;6.954;2024-02-04T14:32:28;1.60;;;0.90;;
84007;SDS011;74070;50.948;6.954;2024-02-04T14:34:55;1.00;;;0.83;;
84007;SDS011;74070;50.948;6.954;2024-02-04T14:37:21;1.90;;;1.20;;
84007;SDS011;74070;50.948;6.954;2024-02-04T14:39:49;2.20;;;1.20;;
84007;SDS011;74070;50.948;6.954;2024-02-04T14:42:16;2.40;;;1.40;;
84007;SDS011;74070;50.948;6.954;2024-02-04T14:44:43;1.10;;;1.00;;
84007;SDS011;74070;50.948;6.954;2024-02-04T14:47:09;1.50;;;1.20;;
84007;SDS011;74070;50.948;6.954;2024-02-04T14:49:36;1.50;;;1.00;;
84007;SDS011;74070;50.948;6.954;2024-02-04T14:52:03;1.17;;;1.03;;
84007;SDS011;74070;50.948;6.954;2024-02-04T14:54:30;1.20;;;0.80;;